Terminal Aerodrome Forecast
Issued by NWS

Current Version | Previous Version | Graphics & Text | Print | Product List | Glossary On
Versions: 1 2 3 4 5 6 7 8 9 10 11 12 13 14 15 16 17 18 19 20 21 22 23
088
FTUS41 KRLX 131132
TAFCKB
TAF
KCKB 131132Z 1312/1412 33011G17KT 6SM -SN OVC020
      TEMPO 1312/1314 3SM -SN OVC015
     FM131400 33010G16KT P6SM OVC020
     FM132000 32009KT P6SM BKN030
     FM140500 33005KT P6SM SCT030=

USA.gov is the U.S. government's official web portal to all federal, state and local government web resources and services.